sensor_id;sensor_type;location;lat;lon;timestamp;P1;durP1;ratioP1;P2;durP2;ratioP2
51226;SDS011;42714;48.260;10.980;2023-04-28T00:03:19;13.7;;;5.7;;
51226;SDS011;42714;48.260;10.980;2023-04-28T00:08:19;12.3;;;5.7;;
51226;SDS011;42714;48.260;10.980;2023-04-28T00:13:19;11.6;;;6.1;;
51226;SDS011;42714;48.260;10.980;2023-04-28T00:18:19;13.5;;;5.4;;
51226;SDS011;42714;48.260;10.980;2023-04-28T00:23:19;11.8;;;6.2;;
51226;SDS011;42714;48.260;10.980;2023-04-28T00:28:19;10.2;;;5.8;;
51226;SDS011;42714;48.260;10.980;2023-04-28T00:33:19;15.0;;;6.0;;
51226;SDS011;42714;48.260;10.980;2023-04-28T00:38:19;11.1;;;5.5;;
51226;SDS011;42714;48.260;10.980;2023-04-28T00:43:19;15.5;;;5.6;;
51226;SDS011;42714;48.260;10.980;2023-04-28T00:48:19;10.9;;;5.6;;
51226;SDS011;42714;48.260;10.980;2023-04-28T00:53:19;14.9;;;5.7;;
51226;SDS011;42714;48.260;10.980;2023-04-28T00:58:19;11.0;;;5.4;;
51226;SDS011;42714;48.260;10.980;2023-04-28T01:03:19;18.7;;;5.7;;
51226;SDS011;42714;48.260;10.980;2023-04-28T01:13:19;13.5;;;5.9;;
51226;SDS011;42714;48.260;10.980;2023-04-28T01:18:19;9.7;;;6.0;;
51226;SDS011;42714;48.260;10.980;2023-04-28T01:23:19;11.6;;;5.5;;
51226;SDS011;42714;48.260;10.980;2023-04-28T01:28:19;10.4;;;5.2;;
51226;SDS011;42714;48.260;10.980;2023-04-28T01:33:19;10.3;;;5.3;;
51226;SDS011;42714;48.260;10.980;2023-04-28T01:38:19;11.1;;;5.6;;
51226;SDS011;42714;48.260;10.980;2023-04-28T01:43:19;9.6;;;4.9;;
51226;SDS011;42714;48.260;10.980;2023-04-28T01:48:19;9.8;;;4.6;;
51226;SDS011;42714;48.260;10.980;2023-04-28T01:53:19;9.6;;;4.6;;
51226;SDS011;42714;48.260;10.980;2023-04-28T01:58:19;9.8;;;4.2;;
51226;SDS011;42714;48.260;10.980;2023-04-28T02:03:19;8.0;;;4.1;;
51226;SDS011;42714;48.260;10.980;2023-04-28T02:08:19;9.0;;;3.6;;
51226;SDS011;42714;48.260;10.980;2023-04-28T02:13:19;9.9;;;4.3;;
51226;SDS011;42714;48.260;10.980;2023-04-28T02:18:19;9.6;;;3.9;;
51226;SDS011;42714;48.260;10.980;2023-04-28T02:23:19;10.0;;;4.6;;
51226;SDS011;42714;48.260;10.980;2023-04-28T02:28:19;10.4;;;4.1;;
51226;SDS011;42714;48.260;10.980;2023-04-28T02:33:19;7.6;;;3.6;;
51226;SDS011;42714;48.260;10.980;2023-04-28T02:38:19;6.6;;;3.2;;
51226;SDS011;42714;48.260;10.980;2023-04-28T02:43:19;8.5;;;3.2;;
51226;SDS011;42714;48.260;10.980;2023-04-28T02:48:19;8.4;;;3.9;;
51226;SDS011;42714;48.260;10.980;2023-04-28T02:53:19;9.6;;;3.7;;
51226;SDS011;42714;48.260;10.980;2023-04-28T02:58:19;6.3;;;3.4;;
51226;SDS011;42714;48.260;10.980;2023-04-28T03:03:19;7.1;;;3.2;;
51226;SDS011;42714;48.260;10.980;2023-04-28T03:08:19;7.1;;;3.0;;
51226;SDS011;42714;48.260;10.980;2023-04-28T03:13:19;7.8;;;3.1;;
51226;SDS011;42714;48.260;10.980;2023-04-28T03:18:19;6.9;;;3.4;;
51226;SDS011;42714;48.260;10.980;2023-04-28T03:23:19;6.8;;;3.3;;
51226;SDS011;42714;48.260;10.980;2023-04-28T03:28:19;10.1;;;3.6;;
51226;SDS011;42714;48.260;10.980;2023-04-28T03:33:19;9.3;;;3.2;;
51226;SDS011;42714;48.260;10.980;2023-04-28T03:38:19;6.6;;;3.0;;
51226;SDS011;42714;48.260;10.980;2023-04-28T03:43:19;10.9;;;3.5;;
51226;SDS011;42714;48.260;10.980;2023-04-28T03:48:19;9.0;;;4.0;;
51226;SDS011;42714;48.260;10.980;2023-04-28T03:53:19;12.8;;;4.9;;
51226;SDS011;42714;48.260;10.980;2023-04-28T03:58:19;13.4;;;4.8;;
51226;SDS011;42714;48.260;10.980;2023-04-28T04:03:19;9.6;;;5.3;;
51226;SDS011;42714;48.260;10.980;2023-04-28T04:08:19;11.1;;;5.2;;
51226;SDS011;42714;48.260;10.980;2023-04-28T04:13:19;9.0;;;5.1;;
51226;SDS011;42714;48.260;10.980;2023-04-28T04:18:19;7.0;;;3.7;;
51226;SDS011;42714;48.260;10.980;2023-04-28T04:23:19;5.2;;;2.3;;
51226;SDS011;42714;48.260;10.980;2023-04-28T04:28:19;5.3;;;2.6;;
51226;SDS011;42714;48.260;10.980;2023-04-28T04:33:19;7.8;;;3.1;;
51226;SDS011;42714;48.260;10.980;2023-04-28T04:38:19;6.5;;;2.0;;
51226;SDS011;42714;48.260;10.980;2023-04-28T04:43:19;10.3;;;3.6;;
51226;SDS011;42714;48.260;10.980;2023-04-28T04:48:19;7.0;;;3.4;;
51226;SDS011;42714;48.260;10.980;2023-04-28T04:53:19;12.9;;;3.9;;
51226;SDS011;42714;48.260;10.980;2023-04-28T04:58:19;9.9;;;4.4;;
51226;SDS011;42714;48.260;10.980;2023-04-28T05:03:19;7.9;;;3.4;;
51226;SDS011;42714;48.260;10.980;2023-04-28T05:08:19;7.5;;;3.3;;
51226;SDS011;42714;48.260;10.980;2023-04-28T05:13:19;7.9;;;3.5;;
51226;SDS011;42714;48.260;10.980;2023-04-28T05:18:19;7.5;;;3.3;;
51226;SDS011;42714;48.260;10.980;2023-04-28T05:23:19;7.4;;;3.3;;
51226;SDS011;42714;48.260;10.980;2023-04-28T05:28:19;8.9;;;3.5;;
51226;SDS011;42714;48.260;10.980;2023-04-28T05:33:19;6.0;;;2.6;;
51226;SDS011;42714;48.260;10.980;2023-04-28T05:38:19;6.4;;;2.8;;
51226;SDS011;42714;48.260;10.980;2023-04-28T05:43:19;8.0;;;3.7;;
51226;SDS011;42714;48.260;10.980;2023-04-28T05:48:19;6.6;;;2.9;;
51226;SDS011;42714;48.260;10.980;2023-04-28T05:53:19;9.2;;;3.3;;
51226;SDS011;42714;48.260;10.980;2023-04-28T05:58:19;7.1;;;3.3;;
51226;SDS011;42714;48.260;10.980;2023-04-28T06:03:19;8.5;;;3.5;;
51226;SDS011;42714;48.260;10.980;2023-04-28T06:08:19;9.2;;;4.2;;
51226;SDS011;42714;48.260;10.980;2023-04-28T06:13:19;10.9;;;4.7;;
51226;SDS011;42714;48.260;10.980;2023-04-28T06:18:19;9.2;;;3.3;;
51226;SDS011;42714;48.260;10.980;2023-04-28T06:23:19;8.1;;;3.4;;
51226;SDS011;42714;48.260;10.980;2023-04-28T06:28:19;5.3;;;1.8;;
51226;SDS011;42714;48.260;10.980;2023-04-28T06:33:19;6.0;;;2.1;;
51226;SDS011;42714;48.260;10.980;2023-04-28T06:38:19;5.1;;;2.3;;
51226;SDS011;42714;48.260;10.980;2023-04-28T06:43:19;6.2;;;2.0;;
51226;SDS011;42714;48.260;10.980;2023-04-28T06:48:19;5.0;;;2.2;;
51226;SDS011;42714;48.260;10.980;2023-04-28T06:53:19;3.9;;;1.3;;
51226;SDS011;42714;48.260;10.980;2023-04-28T06:58:19;4.3;;;1.8;;
51226;SDS011;42714;48.260;10.980;2023-04-28T07:03:19;3.8;;;1.5;;
51226;SDS011;42714;48.260;10.980;2023-04-28T07:08:19;5.5;;;1.6;;
51226;SDS011;42714;48.260;10.980;2023-04-28T07:13:19;3.7;;;1.1;;
51226;SDS011;42714;48.260;10.980;2023-04-28T07:18:19;2.5;;;0.7;;
51226;SDS011;42714;48.260;10.980;2023-04-28T07:23:19;3.4;;;0.9;;
51226;SDS011;42714;48.260;10.980;2023-04-28T07:28:19;5.7;;;0.7;;
51226;SDS011;42714;48.260;10.980;2023-04-28T07:33:19;6.2;;;0.9;;
51226;SDS011;42714;48.260;10.980;2023-04-28T07:38:19;7.8;;;1.3;;
51226;SDS011;42714;48.260;10.980;2023-04-28T07:43:19;5.5;;;1.2;;
51226;SDS011;42714;48.260;10.980;2023-04-28T07:48:19;2.3;;;0.8;;
51226;SDS011;42714;48.260;10.980;2023-04-28T07:53:19;3.4;;;0.9;;
51226;SDS011;42714;48.260;10.980;2023-04-28T07:58:19;3.5;;;1.5;;
51226;SDS011;42714;48.260;10.980;2023-04-28T08:03:19;3.0;;;1.1;;
51226;SDS011;42714;48.260;10.980;2023-04-28T08:08:19;3.8;;;1.2;;
51226;SDS011;42714;48.260;10.980;2023-04-28T08:13:19;3.6;;;1.2;;
51226;SDS011;42714;48.260;10.980;2023-04-28T08:18:19;4.0;;;1.8;;
51226;SDS011;42714;48.260;10.980;2023-04-28T08:23:19;3.7;;;1.1;;
51226;SDS011;42714;48.260;10.980;2023-04-28T08:28:19;6.2;;;1.7;;
51226;SDS011;42714;48.260;10.980;2023-04-28T08:33:19;4.3;;;1.4;;
51226;SDS011;42714;48.260;10.980;2023-04-28T08:38:19;3.1;;;1.1;;
51226;SDS011;42714;48.260;10.980;2023-04-28T08:43:19;3.1;;;1.0;;
51226;SDS011;42714;48.260;10.980;2023-04-28T08:48:20;4.8;;;1.2;;
51226;SDS011;42714;48.260;10.980;2023-04-28T08:53:24;3.6;;;0.7;;
51226;SDS011;42714;48.260;10.980;2023-04-28T08:58:20;5.0;;;0.8;;
51226;SDS011;42714;48.260;10.980;2023-04-28T09:03:19;2.1;;;0.8;;
51226;SDS011;42714;48.260;10.980;2023-04-28T09:08:19;4.5;;;0.9;;
51226;SDS011;42714;48.260;10.980;2023-04-28T09:18:19;3.3;;;0.8;;
51226;SDS011;42714;48.260;10.980;2023-04-28T09:23:20;4.6;;;0.8;;
51226;SDS011;42714;48.260;10.980;2023-04-28T09:28:20;5.0;;;1.3;;
51226;SDS011;42714;48.260;10.980;2023-04-28T09:33:19;3.4;;;1.1;;
51226;SDS011;42714;48.260;10.980;2023-04-28T09:38:20;6.3;;;1.0;;
51226;SDS011;42714;48.260;10.980;2023-04-28T09:53:21;4.6;;;1.3;;
51226;SDS011;42714;48.260;10.980;2023-04-28T09:58:20;4.1;;;1.2;;
51226;SDS011;42714;48.260;10.980;2023-04-28T10:03:20;12.5;;;1.4;;
51226;SDS011;42714;48.260;10.980;2023-04-28T10:08:20;2.7;;;0.9;;
51226;SDS011;42714;48.260;10.980;2023-04-28T10:13:20;6.1;;;1.4;;
51226;SDS011;42714;48.260;10.980;2023-04-28T10:18:21;24.9;;;2.6;;
51226;SDS011;42714;48.260;10.980;2023-04-28T10:23:24;6.9;;;1.7;;
51226;SDS011;42714;48.260;10.980;2023-04-28T10:28:19;8.4;;;2.1;;
51226;SDS011;42714;48.260;10.980;2023-04-28T10:33:21;8.9;;;2.0;;
51226;SDS011;42714;48.260;10.980;2023-04-28T10:38:19;23.4;;;1.9;;
51226;SDS011;42714;48.260;10.980;2023-04-28T10:48:20;11.5;;;2.3;;
51226;SDS011;42714;48.260;10.980;2023-04-28T10:53:19;6.4;;;2.0;;
51226;SDS011;42714;48.260;10.980;2023-04-28T11:18:20;4.1;;;1.7;;
51226;SDS011;42714;48.260;10.980;2023-04-28T11:23:20;3.4;;;1.8;;
51226;SDS011;42714;48.260;10.980;2023-04-28T11:28:20;3.4;;;1.6;;
51226;SDS011;42714;48.260;10.980;2023-04-28T11:33:20;3.7;;;1.7;;
51226;SDS011;42714;48.260;10.980;2023-04-28T11:38:20;3.8;;;1.4;;
51226;SDS011;42714;48.260;10.980;2023-04-28T11:43:27;4.8;;;1.2;;
51226;SDS011;42714;48.260;10.980;2023-04-28T11:48:20;3.3;;;1.1;;
51226;SDS011;42714;48.260;10.980;2023-04-28T11:53:20;3.2;;;1.5;;
51226;SDS011;42714;48.260;10.980;2023-04-28T11:58:20;2.5;;;0.9;;
51226;SDS011;42714;48.260;10.980;2023-04-28T12:03:20;3.7;;;1.1;;
51226;SDS011;42714;48.260;10.980;2023-04-28T12:13:20;2.5;;;0.9;;
51226;SDS011;42714;48.260;10.980;2023-04-28T12:18:20;2.1;;;0.7;;
51226;SDS011;42714;48.260;10.980;2023-04-28T12:28:20;3.0;;;0.6;;
51226;SDS011;42714;48.260;10.980;2023-04-28T12:33:21;2.3;;;0.7;;
51226;SDS011;42714;48.260;10.980;2023-04-28T12:38:20;2.2;;;0.5;;
51226;SDS011;42714;48.260;10.980;2023-04-28T12:43:20;3.4;;;0.6;;
51226;SDS011;42714;48.260;10.980;2023-04-28T12:48:20;2.5;;;0.6;;
51226;SDS011;42714;48.260;10.980;2023-04-28T12:53:20;1.6;;;0.5;;
51226;SDS011;42714;48.260;10.980;2023-04-28T12:58:20;2.6;;;0.5;;
51226;SDS011;42714;48.260;10.980;2023-04-28T13:03:20;2.6;;;0.5;;
51226;SDS011;42714;48.260;10.980;2023-04-28T13:08:20;2.1;;;0.6;;
51226;SDS011;42714;48.260;10.980;2023-04-28T13:13:20;2.4;;;0.4;;
51226;SDS011;42714;48.260;10.980;2023-04-28T13:18:20;1.3;;;0.3;;
51226;SDS011;42714;48.260;10.980;2023-04-28T13:23:20;1.1;;;0.2;;
51226;SDS011;42714;48.260;10.980;2023-04-28T13:28:20;1.4;;;0.3;;
51226;SDS011;42714;48.260;10.980;2023-04-28T13:33:20;3.8;;;0.4;;
51226;SDS011;42714;48.260;10.980;2023-04-28T13:38:20;4.3;;;0.5;;
51226;SDS011;42714;48.260;10.980;2023-04-28T13:43:20;3.9;;;0.3;;
51226;SDS011;42714;48.260;10.980;2023-04-28T13:48:20;11.7;;;0.7;;
51226;SDS011;42714;48.260;10.980;2023-04-28T13:53:20;4.3;;;0.6;;
51226;SDS011;42714;48.260;10.980;2023-04-28T13:58:20;3.0;;;0.3;;
51226;SDS011;42714;48.260;10.980;2023-04-28T14:03:20;1.7;;;0.4;;
51226;SDS011;42714;48.260;10.980;2023-04-28T14:08:20;1.4;;;0.3;;
51226;SDS011;42714;48.260;10.980;2023-04-28T14:13:20;8.0;;;3.2;;
51226;SDS011;42714;48.260;10.980;2023-04-28T14:18:20;4.6;;;1.8;;
51226;SDS011;42714;48.260;10.980;2023-04-28T14:23:23;5.8;;;1.9;;
51226;SDS011;42714;48.260;10.980;2023-04-28T14:28:20;2.4;;;0.8;;
51226;SDS011;42714;48.260;10.980;2023-04-28T14:33:20;6.9;;;1.4;;
51226;SDS011;42714;48.260;10.980;2023-04-28T14:38:20;5.5;;;2.1;;
51226;SDS011;42714;48.260;10.980;2023-04-28T14:43:20;14.9;;;4.5;;
51226;SDS011;42714;48.260;10.980;2023-04-28T14:48:20;13.2;;;4.7;;
51226;SDS011;42714;48.260;10.980;2023-04-28T14:53:20;3.4;;;1.0;;
51226;SDS011;42714;48.260;10.980;2023-04-28T14:58:20;3.7;;;1.8;;
51226;SDS011;42714;48.260;10.980;2023-04-28T15:03:20;2.1;;;0.6;;
51226;SDS011;42714;48.260;10.980;2023-04-28T15:08:20;1.8;;;0.7;;
51226;SDS011;42714;48.260;10.980;2023-04-28T15:13:20;3.4;;;1.0;;
51226;SDS011;42714;48.260;10.980;2023-04-28T15:18:20;4.5;;;0.9;;
51226;SDS011;42714;48.260;10.980;2023-04-28T15:23:20;2.7;;;0.9;;
51226;SDS011;42714;48.260;10.980;2023-04-28T15:28:20;2.2;;;0.9;;
51226;SDS011;42714;48.260;10.980;2023-04-28T15:33:20;3.4;;;0.9;;
51226;SDS011;42714;48.260;10.980;2023-04-28T15:38:20;9.5;;;3.0;;
51226;SDS011;42714;48.260;10.980;2023-04-28T15:43:20;9.7;;;3.0;;
51226;SDS011;42714;48.260;10.980;2023-04-28T15:48:20;8.3;;;2.1;;
51226;SDS011;42714;48.260;10.980;2023-04-28T15:53:20;19.5;;;8.7;;
51226;SDS011;42714;48.260;10.980;2023-04-28T15:58:20;14.9;;;5.8;;
51226;SDS011;42714;48.260;10.980;2023-04-28T16:03:20;4.4;;;1.5;;
51226;SDS011;42714;48.260;10.980;2023-04-28T16:08:20;4.4;;;1.6;;
51226;SDS011;42714;48.260;10.980;2023-04-28T16:13:20;8.0;;;3.5;;
51226;SDS011;42714;48.260;10.980;2023-04-28T16:18:20;7.9;;;3.7;;
51226;SDS011;42714;48.260;10.980;2023-04-28T16:23:20;11.7;;;5.1;;
51226;SDS011;42714;48.260;10.980;2023-04-28T16:28:20;14.2;;;4.7;;
51226;SDS011;42714;48.260;10.980;2023-04-28T16:33:20;35.4;;;5.6;;
51226;SDS011;42714;48.260;10.980;2023-04-28T16:38:20;142.5;;;5.8;;
51226;SDS011;42714;48.260;10.980;2023-04-28T16:43:20;15.8;;;1.9;;
51226;SDS011;42714;48.260;10.980;2023-04-28T16:48:20;9.8;;;1.3;;
51226;SDS011;42714;48.260;10.980;2023-04-28T16:53:20;12.2;;;4.3;;
51226;SDS011;42714;48.260;10.980;2023-04-28T16:58:20;15.4;;;2.6;;
51226;SDS011;42714;48.260;10.980;2023-04-28T17:03:20;8.0;;;3.1;;
51226;SDS011;42714;48.260;10.980;2023-04-28T17:08:20;2.2;;;0.5;;
51226;SDS011;42714;48.260;10.980;2023-04-28T17:13:20;4.3;;;1.2;;
51226;SDS011;42714;48.260;10.980;2023-04-28T17:18:20;11.6;;;4.5;;
51226;SDS011;42714;48.260;10.980;2023-04-28T17:23:20;9.1;;;1.4;;
51226;SDS011;42714;48.260;10.980;2023-04-28T17:28:20;5.9;;;1.4;;
51226;SDS011;42714;48.260;10.980;2023-04-28T17:33:20;5.7;;;1.8;;
51226;SDS011;42714;48.260;10.980;2023-04-28T17:38:20;4.7;;;1.3;;
51226;SDS011;42714;48.260;10.980;2023-04-28T17:43:20;6.7;;;2.7;;
51226;SDS011;42714;48.260;10.980;2023-04-28T17:48:20;9.5;;;4.5;;
51226;SDS011;42714;48.260;10.980;2023-04-28T17:53:20;11.2;;;4.7;;
51226;SDS011;42714;48.260;10.980;2023-04-28T17:58:20;27.5;;;13.9;;
51226;SDS011;42714;48.260;10.980;2023-04-28T18:03:20;39.4;;;18.8;;
51226;SDS011;42714;48.260;10.980;2023-04-28T18:08:20;61.6;;;23.3;;
51226;SDS011;42714;48.260;10.980;2023-04-28T18:13:20;53.4;;;19.6;;
51226;SDS011;42714;48.260;10.980;2023-04-28T18:18:20;20.3;;;10.2;;
51226;SDS011;42714;48.260;10.980;2023-04-28T18:23:20;20.4;;;10.7;;
51226;SDS011;42714;48.260;10.980;2023-04-28T18:28:20;26.4;;;11.0;;
51226;SDS011;42714;48.260;10.980;2023-04-28T18:33:20;28.3;;;13.3;;
51226;SDS011;42714;48.260;10.980;2023-04-28T18:38:20;72.4;;;15.8;;
51226;SDS011;42714;48.260;10.980;2023-04-28T18:43:20;14.6;;;8.5;;
51226;SDS011;42714;48.260;10.980;2023-04-28T18:48:20;8.5;;;3.8;;
51226;SDS011;42714;48.260;10.980;2023-04-28T18:53:20;9.4;;;2.5;;
51226;SDS011;42714;48.260;10.980;2023-04-28T18:58:20;7.5;;;2.2;;
51226;SDS011;42714;48.260;10.980;2023-04-28T19:03:20;7.8;;;1.9;;
51226;SDS011;42714;48.260;10.980;2023-04-28T19:08:20;5.0;;;2.1;;
51226;SDS011;42714;48.260;10.980;2023-04-28T19:13:20;15.7;;;1.6;;
51226;SDS011;42714;48.260;10.980;2023-04-28T19:18:20;10.3;;;1.9;;
51226;SDS011;42714;48.260;10.980;2023-04-28T19:23:20;10.4;;;2.3;;
51226;SDS011;42714;48.260;10.980;2023-04-28T19:28:20;7.2;;;3.7;;
51226;SDS011;42714;48.260;10.980;2023-04-28T19:33:20;23.6;;;9.6;;
51226;SDS011;42714;48.260;10.980;2023-04-28T19:38:20;9.4;;;4.1;;
51226;SDS011;42714;48.260;10.980;2023-04-28T19:43:20;31.6;;;16.3;;
51226;SDS011;42714;48.260;10.980;2023-04-28T19:48:20;5.6;;;1.3;;
51226;SDS011;42714;48.260;10.980;2023-04-28T19:53:20;6.7;;;3.3;;
51226;SDS011;42714;48.260;10.980;2023-04-28T19:58:20;10.5;;;4.3;;
51226;SDS011;42714;48.260;10.980;2023-04-28T20:03:20;5.5;;;1.9;;
51226;SDS011;42714;48.260;10.980;2023-04-28T20:08:20;7.7;;;2.8;;
51226;SDS011;42714;48.260;10.980;2023-04-28T20:13:20;5.1;;;2.7;;
51226;SDS011;42714;48.260;10.980;2023-04-28T20:18:20;7.3;;;3.4;;
51226;SDS011;42714;48.260;10.980;2023-04-28T20:23:20;6.1;;;2.6;;
51226;SDS011;42714;48.260;10.980;2023-04-28T20:28:20;7.4;;;3.6;;
51226;SDS011;42714;48.260;10.980;2023-04-28T20:33:20;9.5;;;5.0;;
51226;SDS011;42714;48.260;10.980;2023-04-28T20:38:20;7.5;;;3.9;;
51226;SDS011;42714;48.260;10.980;2023-04-28T20:43:20;6.8;;;3.6;;
51226;SDS011;42714;48.260;10.980;2023-04-28T20:48:20;6.8;;;3.2;;
51226;SDS011;42714;48.260;10.980;2023-04-28T20:53:20;4.2;;;1.5;;
51226;SDS011;42714;48.260;10.980;2023-04-28T20:58:20;3.2;;;0.9;;
51226;SDS011;42714;48.260;10.980;2023-04-28T21:03:20;2.9;;;0.8;;
51226;SDS011;42714;48.260;10.980;2023-04-28T21:08:20;3.5;;;0.6;;
51226;SDS011;42714;48.260;10.980;2023-04-28T21:13:20;3.4;;;0.8;;
51226;SDS011;42714;48.260;10.980;2023-04-28T21:18:20;2.6;;;0.7;;
51226;SDS011;42714;48.260;10.980;2023-04-28T21:23:20;3.9;;;1.2;;
51226;SDS011;42714;48.260;10.980;2023-04-28T21:28:20;5.2;;;1.0;;
51226;SDS011;42714;48.260;10.980;2023-04-28T21:33:20;3.0;;;0.9;;
51226;SDS011;42714;48.260;10.980;2023-04-28T21:38:20;2.9;;;0.9;;
51226;SDS011;42714;48.260;10.980;2023-04-28T21:43:20;3.5;;;1.3;;
51226;SDS011;42714;48.260;10.980;2023-04-28T21:48:20;4.1;;;1.3;;
51226;SDS011;42714;48.260;10.980;2023-04-28T21:53:20;2.9;;;1.0;;
51226;SDS011;42714;48.260;10.980;2023-04-28T21:58:20;2.2;;;0.8;;
51226;SDS011;42714;48.260;10.980;2023-04-28T22:03:20;2.2;;;0.5;;
51226;SDS011;42714;48.260;10.980;2023-04-28T22:08:20;1.8;;;0.5;;
51226;SDS011;42714;48.260;10.980;2023-04-28T22:13:20;2.0;;;0.5;;
51226;SDS011;42714;48.260;10.980;2023-04-28T22:18:20;1.6;;;0.4;;
51226;SDS011;42714;48.260;10.980;2023-04-28T22:23:20;2.5;;;0.5;;
51226;SDS011;42714;48.260;10.980;2023-04-28T22:28:20;2.1;;;0.5;;
51226;SDS011;42714;48.260;10.980;2023-04-28T22:33:20;1.8;;;0.5;;
51226;SDS011;42714;48.260;10.980;2023-04-28T22:38:20;1.7;;;0.5;;
51226;SDS011;42714;48.260;10.980;2023-04-28T22:43:20;1.6;;;0.4;;
51226;SDS011;42714;48.260;10.980;2023-04-28T22:48:20;1.7;;;0.5;;
51226;SDS011;42714;48.260;10.980;2023-04-28T22:53:20;2.3;;;0.5;;
51226;SDS011;42714;48.260;10.980;2023-04-28T22:58:20;1.7;;;0.4;;
51226;SDS011;42714;48.260;10.980;2023-04-28T23:03:20;3.0;;;0.8;;
51226;SDS011;42714;48.260;10.980;2023-04-28T23:08:20;2.7;;;0.7;;
51226;SDS011;42714;48.260;10.980;2023-04-28T23:13:20;2.1;;;0.6;;
51226;SDS011;42714;48.260;10.980;2023-04-28T23:18:20;3.2;;;0.6;;
51226;SDS011;42714;48.260;10.980;2023-04-28T23:23:20;4.0;;;0.8;;
51226;SDS011;42714;48.260;10.980;2023-04-28T23:28:20;3.6;;;1.0;;
51226;SDS011;42714;48.260;10.980;2023-04-28T23:33:20;4.3;;;1.2;;
51226;SDS011;42714;48.260;10.980;2023-04-28T23:38:20;8.3;;;1.1;;
51226;SDS011;42714;48.260;10.980;2023-04-28T23:43:20;3.1;;;1.2;;
51226;SDS011;42714;48.260;10.980;2023-04-28T23:48:20;3.0;;;1.1;;
51226;SDS011;42714;48.260;10.980;2023-04-28T23:53:20;4.8;;;1.3;;
51226;SDS011;42714;48.260;10.980;2023-04-28T23:58:20;6.4;;;1.4;;
